sensor_id;sensor_type;location;lat;lon;timestamp;pressure;altitude;pressure_sealevel;temperature;humidity
57000;BME280;42891;50.006;21.964;2022-09-09T00:13:57;98644.03;;;19.17;93.90
57000;BME280;42891;50.006;21.964;2022-09-09T00:22:18;98638.88;;;19.09;93.90
57000;BME280;42891;50.006;21.964;2022-09-09T00:26:29;98651.44;;;19.15;93.82
57000;BME280;42891;50.006;21.964;2022-09-09T00:30:34;98647.09;;;19.14;94.15
57000;BME280;42891;50.006;21.964;2022-09-09T00:34:36;98643.22;;;19.10;94.60
57000;BME280;42891;50.006;21.964;2022-09-09T00:38:42;98645.66;;;19.05;94.05
57000;BME280;42891;50.006;21.964;2022-09-09T00:42:44;98645.66;;;19.05;93.88
57000;BME280;42891;50.006;21.964;2022-09-09T01:07:28;98642.41;;;18.81;94.15
57000;BME280;42891;50.006;21.964;2022-09-09T01:15:44;98650.84;;;18.85;94.71
57000;BME280;42891;50.006;21.964;2022-09-09T01:20:13;98642.81;;;18.78;94.97
57000;BME280;42891;50.006;21.964;2022-09-09T01:28:22;98634.78;;;18.78;95.52
57000;BME280;42891;50.006;21.964;2022-09-09T01:32:46;98653.72;;;18.83;96.20
57000;BME280;42891;50.006;21.964;2022-09-09T01:40:53;98661.53;;;18.78;95.53
57000;BME280;42891;50.006;21.964;2022-09-09T01:44:54;98674.13;;;18.84;94.89
57000;BME280;42891;50.006;21.964;2022-09-09T01:48:56;98669.28;;;18.66;94.82
57000;BME280;42891;50.006;21.964;2022-09-09T01:52:59;98670.13;;;18.73;94.35
57000;BME280;42891;50.006;21.964;2022-09-09T02:05:41;98653.72;;;18.48;94.17
57000;BME280;42891;50.006;21.964;2022-09-09T02:09:47;98668.47;;;18.66;94.00
57000;BME280;42891;50.006;21.964;2022-09-09T02:13:57;98673.97;;;18.64;93.83
57000;BME280;42891;50.006;21.964;2022-09-09T02:18:01;98671.03;;;18.52;93.85
57000;BME280;42891;50.006;21.964;2022-09-09T02:22:06;98660.28;;;18.46;94.08
57000;BME280;42891;50.006;21.964;2022-09-09T02:26:07;98663.41;;;18.49;94.05
57000;BME280;42891;50.006;21.964;2022-09-09T02:30:09;98659.69;;;18.50;93.64
57000;BME280;42891;50.006;21.964;2022-09-09T02:34:11;98656.66;;;18.53;93.54
57000;BME280;42891;50.006;21.964;2022-09-09T02:38:13;98650.44;;;18.46;93.58
57000;BME280;42891;50.006;21.964;2022-09-09T02:42:15;98665.50;;;18.54;93.68
57000;BME280;42891;50.006;21.964;2022-09-09T02:46:22;98667.78;;;18.57;94.11
57000;BME280;42891;50.006;21.964;2022-09-09T02:50:31;98669.56;;;18.50;93.75
57000;BME280;42891;50.006;21.964;2022-09-09T02:54:40;98682.34;;;18.54;93.35
57000;BME280;42891;50.006;21.964;2022-09-09T02:58:40;98681.53;;;18.54;93.45
57000;BME280;42891;50.006;21.964;2022-09-09T03:02:41;98674.31;;;18.48;93.44
57000;BME280;42891;50.006;21.964;2022-09-09T03:06:42;98683.13;;;18.48;94.10
57000;BME280;42891;50.006;21.964;2022-09-09T03:10:43;98664.13;;;18.36;94.02
57000;BME280;42891;50.006;21.964;2022-09-09T03:14:43;98670.75;;;18.40;94.67
57000;BME280;42891;50.006;21.964;2022-09-09T03:18:45;98681.22;;;18.35;94.62
57000;BME280;42891;50.006;21.964;2022-09-09T03:22:46;98683.75;;;18.44;94.69
57000;BME280;42891;50.006;21.964;2022-09-09T03:26:46;98682.88;;;18.43;95.05
57000;BME280;42891;50.006;21.964;2022-09-09T03:30:47;98663.31;;;18.36;94.99
57000;BME280;42891;50.006;21.964;2022-09-09T03:34:47;98683.09;;;18.42;95.52
57000;BME280;42891;50.006;21.964;2022-09-09T03:38:49;98689.09;;;18.44;95.14
57000;BME280;42891;50.006;21.964;2022-09-09T03:42:50;98669.25;;;18.31;95.31
57000;BME280;42891;50.006;21.964;2022-09-09T03:46:51;98686.56;;;18.35;95.79
57000;BME280;42891;50.006;21.964;2022-09-09T03:50:52;98684.50;;;18.37;96.29
57000;BME280;42891;50.006;21.964;2022-09-09T03:54:53;98682.03;;;18.36;95.76
57000;BME280;42891;50.006;21.964;2022-09-09T03:58:54;98665.31;;;18.27;96.14
57000;BME280;42891;50.006;21.964;2022-09-09T04:02:54;98675.41;;;18.32;96.60
57000;BME280;42891;50.006;21.964;2022-09-09T04:06:55;98674.00;;;18.36;96.55
57000;BME280;42891;50.006;21.964;2022-09-09T04:10:56;98677.31;;;18.38;96.45
57000;BME280;42891;50.006;21.964;2022-09-09T04:14:57;98682.66;;;18.38;97.37
57000;BME280;42891;50.006;21.964;2022-09-09T04:18:58;98677.28;;;18.31;97.48
57000;BME280;42891;50.006;21.964;2022-09-09T04:22:59;98678.09;;;18.32;97.01
57000;BME280;42891;50.006;21.964;2022-09-09T04:27:00;98673.19;;;18.35;97.38
57000;BME280;42891;50.006;21.964;2022-09-09T04:31:09;98684.69;;;18.36;97.65
57000;BME280;42891;50.006;21.964;2022-09-09T04:35:09;98676.06;;;18.34;98.09
57000;BME280;42891;50.006;21.964;2022-09-09T04:39:10;98685.16;;;18.39;97.86
57000;BME280;42891;50.006;21.964;2022-09-09T04:43:10;98688.63;;;18.40;98.40
57000;BME280;42891;50.006;21.964;2022-09-09T04:47:11;98697.31;;;18.42;98.61
57000;BME280;42891;50.006;21.964;2022-09-09T04:51:13;98704.47;;;18.42;99.29
57000;BME280;42891;50.006;21.964;2022-09-09T04:55:14;98702.19;;;18.38;99.58
57000;BME280;42891;50.006;21.964;2022-09-09T04:59:14;98702.13;;;18.32;99.79
57000;BME280;42891;50.006;21.964;2022-09-09T05:03:14;98709.97;;;18.33;99.73
57000;BME280;42891;50.006;21.964;2022-09-09T05:07:15;98711.63;;;18.34;99.26
57000;BME280;42891;50.006;21.964;2022-09-09T05:11:23;98723.56;;;18.38;99.47
57000;BME280;42891;50.006;21.964;2022-09-09T05:15:24;98727.31;;;18.44;99.61
57000;BME280;42891;50.006;21.964;2022-09-09T05:19:24;98720.50;;;18.42;100.00
57000;BME280;42891;50.006;21.964;2022-09-09T05:23:24;98730.00;;;18.44;99.84
57000;BME280;42891;50.006;21.964;2022-09-09T05:27:25;98735.34;;;18.44;100.00
57000;BME280;42891;50.006;21.964;2022-09-09T05:31:25;98720.72;;;18.40;99.22
57000;BME280;42891;50.006;21.964;2022-09-09T05:35:28;98727.13;;;18.46;100.00
57000;BME280;42891;50.006;21.964;2022-09-09T05:39:28;98723.78;;;18.37;100.00
57000;BME280;42891;50.006;21.964;2022-09-09T05:43:29;98743.16;;;18.46;100.00
57000;BME280;42891;50.006;21.964;2022-09-09T05:47:29;98727.84;;;18.33;100.00
57000;BME280;42891;50.006;21.964;2022-09-09T05:51:29;98744.09;;;18.31;100.00
57000;BME280;42891;50.006;21.964;2022-09-09T05:55:32;98746.44;;;18.41;100.00
57000;BME280;42891;50.006;21.964;2022-09-09T05:59:33;98737.22;;;18.22;100.00
57000;BME280;42891;50.006;21.964;2022-09-09T06:03:38;98753.72;;;18.32;100.00
57000;BME280;42891;50.006;21.964;2022-09-09T06:07:38;98752.16;;;18.38;100.00
57000;BME280;42891;50.006;21.964;2022-09-09T06:11:42;98753.69;;;18.26;99.97
57000;BME280;42891;50.006;21.964;2022-09-09T06:15:52;98761.94;;;18.31;99.94
57000;BME280;42891;50.006;21.964;2022-09-09T06:19:52;98757.25;;;18.11;99.66
57000;BME280;42891;50.006;21.964;2022-09-09T06:23:53;98728.63;;;18.05;99.97
57000;BME280;42891;50.006;21.964;2022-09-09T06:27:54;98766.59;;;18.22;99.83
57000;BME280;42891;50.006;21.964;2022-09-09T06:31:54;98773.22;;;18.26;99.72
57000;BME280;42891;50.006;21.964;2022-09-09T06:35:54;98777.56;;;18.27;98.68
57000;BME280;42891;50.006;21.964;2022-09-09T06:39:57;98765.78;;;18.21;97.64
57000;BME280;42891;50.006;21.964;2022-09-09T06:43:57;98775.53;;;18.08;97.52
57000;BME280;42891;50.006;21.964;2022-09-09T06:47:57;98774.66;;;18.07;96.84
57000;BME280;42891;50.006;21.964;2022-09-09T06:51:58;98791.59;;;18.14;96.85
57000;BME280;42891;50.006;21.964;2022-09-09T06:55:58;98792.50;;;18.21;96.46
57000;BME280;42891;50.006;21.964;2022-09-09T06:59:58;98798.78;;;18.14;95.12
57000;BME280;42891;50.006;21.964;2022-09-09T07:03:59;98814.91;;;18.20;96.63
57000;BME280;42891;50.006;21.964;2022-09-09T07:07:59;98815.09;;;18.19;96.82
57000;BME280;42891;50.006;21.964;2022-09-09T07:12:00;98817.97;;;18.17;95.77
57000;BME280;42891;50.006;21.964;2022-09-09T07:16:08;98810.94;;;18.16;96.49
57000;BME280;42891;50.006;21.964;2022-09-09T07:20:09;98823.63;;;18.29;96.82
57000;BME280;42891;50.006;21.964;2022-09-09T07:24:10;98806.63;;;18.15;97.25
57000;BME280;42891;50.006;21.964;2022-09-09T07:28:10;98839.09;;;18.34;96.84
57000;BME280;42891;50.006;21.964;2022-09-09T07:32:11;98825.34;;;18.37;97.93
57000;BME280;42891;50.006;21.964;2022-09-09T07:40:17;98832.97;;;18.40;96.35
57000;BME280;42891;50.006;21.964;2022-09-09T07:44:22;98848.84;;;18.63;96.26
57000;BME280;42891;50.006;21.964;2022-09-09T07:48:23;98849.31;;;18.73;96.73
57000;BME280;42891;50.006;21.964;2022-09-09T07:52:23;98849.59;;;18.79;94.24
57000;BME280;42891;50.006;21.964;2022-09-09T07:56:25;98850.00;;;18.82;93.69
57000;BME280;42891;50.006;21.964;2022-09-09T08:00:26;98847.63;;;18.87;92.95
57000;BME280;42891;50.006;21.964;2022-09-09T08:04:27;98855.50;;;18.96;91.63
57000;BME280;42891;50.006;21.964;2022-09-09T08:08:28;98865.25;;;19.03;91.14
57000;BME280;42891;50.006;21.964;2022-09-09T08:12:29;98847.22;;;18.90;88.25
57000;BME280;42891;50.006;21.964;2022-09-09T08:16:32;98865.53;;;19.15;89.37
57000;BME280;42891;50.006;21.964;2022-09-09T08:20:35;98864.25;;;19.11;88.39
57000;BME280;42891;50.006;21.964;2022-09-09T08:24:36;98868.84;;;19.17;85.49
57000;BME280;42891;50.006;21.964;2022-09-09T08:28:36;98872.81;;;19.21;86.59
57000;BME280;42891;50.006;21.964;2022-09-09T08:32:36;98883.38;;;19.36;88.45
57000;BME280;42891;50.006;21.964;2022-09-09T08:36:44;98871.38;;;19.25;86.20
57000;BME280;42891;50.006;21.964;2022-09-09T08:40:46;98872.06;;;19.34;85.86
57000;BME280;42891;50.006;21.964;2022-09-09T08:44:56;98873.75;;;19.42;86.40
57000;BME280;42891;50.006;21.964;2022-09-09T08:49:28;98835.38;;;19.28;83.77
57000;BME280;42891;50.006;21.964;2022-09-09T08:53:38;98850.13;;;19.52;83.80
57000;BME280;42891;50.006;21.964;2022-09-09T08:57:40;98851.16;;;19.51;82.42
57000;BME280;42891;50.006;21.964;2022-09-09T09:01:58;98865.59;;;19.57;81.36
57000;BME280;42891;50.006;21.964;2022-09-09T09:10:15;98867.84;;;19.53;81.57
57000;BME280;42891;50.006;21.964;2022-09-09T09:14:22;98856.09;;;19.54;81.21
57000;BME280;42891;50.006;21.964;2022-09-09T09:18:23;98862.72;;;19.58;79.07
57000;BME280;42891;50.006;21.964;2022-09-09T09:26:36;98861.69;;;19.59;77.96
57000;BME280;42891;50.006;21.964;2022-09-09T09:30:52;98863.41;;;19.67;77.04
57000;BME280;42891;50.006;21.964;2022-09-09T09:34:56;98878.72;;;19.80;77.65
57000;BME280;42891;50.006;21.964;2022-09-09T09:38:58;98869.50;;;19.89;78.11
57000;BME280;42891;50.006;21.964;2022-09-09T09:43:00;98861.06;;;19.92;77.07
57000;BME280;42891;50.006;21.964;2022-09-09T09:47:08;98888.50;;;20.01;74.32
57000;BME280;42891;50.006;21.964;2022-09-09T09:51:11;98881.94;;;20.04;75.38
57000;BME280;42891;50.006;21.964;2022-09-09T09:55:15;98875.38;;;20.13;73.54
57000;BME280;42891;50.006;21.964;2022-09-09T10:03:30;98886.00;;;20.61;72.88
57000;BME280;42891;50.006;21.964;2022-09-09T10:07:31;98887.84;;;20.61;75.02
57000;BME280;42891;50.006;21.964;2022-09-09T10:11:44;98892.16;;;20.49;72.77
57000;BME280;42891;50.006;21.964;2022-09-09T10:20:32;98869.66;;;20.30;73.70
57000;BME280;42891;50.006;21.964;2022-09-09T10:33:19;98873.13;;;20.23;72.95
57000;BME280;42891;50.006;21.964;2022-09-09T10:42:18;98877.47;;;20.24;74.55
57000;BME280;42891;50.006;21.964;2022-09-09T10:58:36;98893.56;;;20.24;74.64
57000;BME280;42891;50.006;21.964;2022-09-09T11:02:39;98869.16;;;20.13;74.49
57000;BME280;42891;50.006;21.964;2022-09-09T11:06:45;98892.75;;;20.24;74.41
57000;BME280;42891;50.006;21.964;2022-09-09T11:11:25;98881.56;;;20.14;74.78
57000;BME280;42891;50.006;21.964;2022-09-09T11:15:25;98909.25;;;20.34;75.65
57000;BME280;42891;50.006;21.964;2022-09-09T11:19:37;98903.84;;;20.21;74.30
57000;BME280;42891;50.006;21.964;2022-09-09T11:23:52;98909.25;;;20.34;74.83
57000;BME280;42891;50.006;21.964;2022-09-09T11:27:58;98903.25;;;20.25;74.02
57000;BME280;42891;50.006;21.964;2022-09-09T11:40:40;98917.69;;;20.24;74.35
57000;BME280;42891;50.006;21.964;2022-09-09T11:44:41;98915.59;;;20.20;74.75
57000;BME280;42891;50.006;21.964;2022-09-09T11:48:44;98928.44;;;20.31;75.29
57000;BME280;42891;50.006;21.964;2022-09-09T11:52:49;98934.00;;;20.36;76.21
57000;BME280;42891;50.006;21.964;2022-09-09T11:56:49;98907.38;;;20.21;74.31
57000;BME280;42891;50.006;21.964;2022-09-09T12:00:49;98924.53;;;20.34;74.86
57000;BME280;42891;50.006;21.964;2022-09-09T12:05:06;98926.38;;;20.40;75.48
57000;BME280;42891;50.006;21.964;2022-09-09T12:13:22;98887.00;;;20.47;74.48
57000;BME280;42891;50.006;21.964;2022-09-09T12:17:25;98899.91;;;20.92;72.46
57000;BME280;42891;50.006;21.964;2022-09-09T12:21:54;98893.09;;;21.23;74.31
57000;BME280;42891;50.006;21.964;2022-09-09T12:26:16;98892.44;;;21.54;73.01
57000;BME280;42891;50.006;21.964;2022-09-09T12:30:20;98890.38;;;21.43;70.39
57000;BME280;42891;50.006;21.964;2022-09-09T12:34:34;98892.44;;;21.54;70.27
57000;BME280;42891;50.006;21.964;2022-09-09T12:38:43;98900.47;;;21.68;68.71
57000;BME280;42891;50.006;21.964;2022-09-09T12:42:43;98890.75;;;21.73;68.99
57000;BME280;42891;50.006;21.964;2022-09-09T12:46:45;98880.19;;;21.78;69.33
57000;BME280;42891;50.006;21.964;2022-09-09T12:50:49;98881.00;;;21.79;68.88
57000;BME280;42891;50.006;21.964;2022-09-09T12:54:50;98880.41;;;21.84;67.92
57000;BME280;42891;50.006;21.964;2022-09-09T12:58:52;98879.75;;;21.82;67.53
57000;BME280;42891;50.006;21.964;2022-09-09T13:02:58;98884.13;;;21.76;68.81
57000;BME280;42891;50.006;21.964;2022-09-09T13:07:09;98879.59;;;21.70;68.24
57000;BME280;42891;50.006;21.964;2022-09-09T13:11:17;98886.38;;;21.79;68.04
57000;BME280;42891;50.006;21.964;2022-09-09T13:15:24;98888.06;;;21.73;67.85
57000;BME280;42891;50.006;21.964;2022-09-09T13:19:29;98873.19;;;21.64;67.80
57000;BME280;42891;50.006;21.964;2022-09-09T13:23:35;98889.94;;;21.66;68.00
57000;BME280;42891;50.006;21.964;2022-09-09T13:27:38;98897.81;;;21.54;67.65
57000;BME280;42891;50.006;21.964;2022-09-09T13:31:39;98894.50;;;21.59;66.92
57000;BME280;42891;50.006;21.964;2022-09-09T13:35:54;98890.78;;;21.60;66.11
57000;BME280;42891;50.006;21.964;2022-09-09T13:39:55;98881.25;;;21.64;66.71
57000;BME280;42891;50.006;21.964;2022-09-09T13:43:56;98887.56;;;22.03;66.74
57000;BME280;42891;50.006;21.964;2022-09-09T13:48:08;98885.28;;;22.45;64.60
57000;BME280;42891;50.006;21.964;2022-09-09T13:52:10;98877.06;;;22.97;64.28
57000;BME280;42891;50.006;21.964;2022-09-09T13:56:11;98878.41;;;23.94;60.75
57000;BME280;42891;50.006;21.964;2022-09-09T14:00:12;98869.25;;;24.63;56.38
57000;BME280;42891;50.006;21.964;2022-09-09T14:04:13;98862.13;;;25.16;53.87
57000;BME280;42891;50.006;21.964;2022-09-09T14:08:22;98873.44;;;26.01;52.76
57000;BME280;42891;50.006;21.964;2022-09-09T14:12:23;98863.19;;;26.44;51.04
57000;BME280;42891;50.006;21.964;2022-09-09T14:16:24;98866.53;;;26.34;51.08
57000;BME280;42891;50.006;21.964;2022-09-09T14:20:27;98865.94;;;26.32;50.71
57000;BME280;42891;50.006;21.964;2022-09-09T14:24:27;98860.72;;;26.71;49.97
57000;BME280;42891;50.006;21.964;2022-09-09T14:28:27;98858.41;;;26.97;50.28
57000;BME280;42891;50.006;21.964;2022-09-09T14:32:28;98855.47;;;26.98;47.84
57000;BME280;42891;50.006;21.964;2022-09-09T14:36:29;98853.53;;;27.33;48.84
57000;BME280;42891;50.006;21.964;2022-09-09T14:40:30;98853.84;;;27.76;48.39
57000;BME280;42891;50.006;21.964;2022-09-09T14:44:30;98860.97;;;27.82;46.08
57000;BME280;42891;50.006;21.964;2022-09-09T14:48:31;98842.06;;;28.09;47.35
57000;BME280;42891;50.006;21.964;2022-09-09T14:52:31;98837.41;;;27.82;47.19
57000;BME280;42891;50.006;21.964;2022-09-09T14:56:32;98853.22;;;27.90;45.75
57000;BME280;42891;50.006;21.964;2022-09-09T15:00:36;98835.97;;;27.35;47.14
57000;BME280;42891;50.006;21.964;2022-09-09T15:04:36;98843.56;;;26.82;48.43
57000;BME280;42891;50.006;21.964;2022-09-09T15:08:38;98838.13;;;26.19;49.72
57000;BME280;42891;50.006;21.964;2022-09-09T15:12:39;98845.59;;;25.89;50.85
57000;BME280;42891;50.006;21.964;2022-09-09T15:16:40;98846.75;;;25.52;50.76
57000;BME280;42891;50.006;21.964;2022-09-09T15:20:44;98845.56;;;25.00;52.83
57000;BME280;42891;50.006;21.964;2022-09-09T15:24:46;98850.72;;;24.90;53.65
57000;BME280;42891;50.006;21.964;2022-09-09T15:28:47;98842.84;;;24.77;53.80
57000;BME280;42891;50.006;21.964;2022-09-09T15:32:49;98842.63;;;24.90;52.94
57000;BME280;42891;50.006;21.964;2022-09-09T15:36:49;98821.81;;;24.79;53.28
57000;BME280;42891;50.006;21.964;2022-09-09T15:40:54;98833.56;;;24.84;55.29
57000;BME280;42891;50.006;21.964;2022-09-09T15:44:55;98831.84;;;24.60;56.03
57000;BME280;42891;50.006;21.964;2022-09-09T15:49:12;98830.84;;;24.30;57.87
57000;BME280;42891;50.006;21.964;2022-09-09T15:53:13;98831.06;;;23.98;61.36
57000;BME280;42891;50.006;21.964;2022-09-09T15:57:14;98839.31;;;23.66;63.32
57000;BME280;42891;50.006;21.964;2022-09-09T16:01:14;98832.28;;;23.28;63.85
57000;BME280;42891;50.006;21.964;2022-09-09T16:05:16;98847.81;;;23.26;64.59
57000;BME280;42891;50.006;21.964;2022-09-09T16:09:17;98857.69;;;23.14;64.97
57000;BME280;42891;50.006;21.964;2022-09-09T16:13:17;98829.47;;;22.66;66.76
57000;BME280;42891;50.006;21.964;2022-09-09T16:17:17;98861.03;;;22.84;66.03
57000;BME280;42891;50.006;21.964;2022-09-09T16:21:28;98855.88;;;22.51;66.88
57000;BME280;42891;50.006;21.964;2022-09-09T16:25:29;98861.13;;;22.39;67.07
57000;BME280;42891;50.006;21.964;2022-09-09T16:29:30;98869.03;;;22.34;67.35
57000;BME280;42891;50.006;21.964;2022-09-09T16:33:30;98873.25;;;22.09;68.48
57000;BME280;42891;50.006;21.964;2022-09-09T16:37:30;98887.31;;;22.11;68.43
57000;BME280;42891;50.006;21.964;2022-09-09T16:41:34;98895.22;;;22.00;68.96
57000;BME280;42891;50.006;21.964;2022-09-09T16:45:41;98893.63;;;21.85;69.12
57000;BME280;42891;50.006;21.964;2022-09-09T16:49:42;98861.66;;;21.57;69.55
57000;BME280;42891;50.006;21.964;2022-09-09T16:53:43;98880.03;;;21.60;69.91
57000;BME280;42891;50.006;21.964;2022-09-09T16:57:43;98890.38;;;21.56;70.71
57000;BME280;42891;50.006;21.964;2022-09-09T17:01:45;98889.13;;;21.39;70.92
57000;BME280;42891;50.006;21.964;2022-09-09T17:05:45;98876.75;;;21.24;71.32
57000;BME280;42891;50.006;21.964;2022-09-09T17:09:46;98880.09;;;21.13;71.98
57000;BME280;42891;50.006;21.964;2022-09-09T17:13:46;98890.78;;;20.86;73.36
57000;BME280;42891;50.006;21.964;2022-09-09T17:17:47;98893.28;;;20.94;72.97
57000;BME280;42891;50.006;21.964;2022-09-09T17:21:49;98882.53;;;20.68;73.67
57000;BME280;42891;50.006;21.964;2022-09-09T17:25:57;98897.41;;;20.77;73.72
57000;BME280;42891;50.006;21.964;2022-09-09T17:29:58;98888.13;;;20.73;73.11
57000;BME280;42891;50.006;21.964;2022-09-09T17:33:59;98895.09;;;20.60;73.52
57000;BME280;42891;50.006;21.964;2022-09-09T17:38:00;98908.72;;;20.59;74.25
57000;BME280;42891;50.006;21.964;2022-09-09T17:42:00;98909.53;;;20.59;74.67
57000;BME280;42891;50.006;21.964;2022-09-09T17:46:17;98916.31;;;20.55;74.18
57000;BME280;42891;50.006;21.964;2022-09-09T17:50:19;98912.38;;;20.38;74.30
57000;BME280;42891;50.006;21.964;2022-09-09T17:54:20;98914.00;;;20.39;74.99
57000;BME280;42891;50.006;21.964;2022-09-09T17:58:20;98925.97;;;20.30;75.18
57000;BME280;42891;50.006;21.964;2022-09-09T18:02:21;98932.31;;;20.22;75.49
57000;BME280;42891;50.006;21.964;2022-09-09T18:06:26;98937.22;;;20.18;75.67
57000;BME280;42891;50.006;21.964;2022-09-09T18:10:27;98953.50;;;20.10;75.99
57000;BME280;42891;50.006;21.964;2022-09-09T18:14:29;98941.28;;;20.01;76.04
57000;BME280;42891;50.006;21.964;2022-09-09T18:18:30;98953.44;;;19.97;76.28
57000;BME280;42891;50.006;21.964;2022-09-09T18:22:32;98952.78;;;19.95;76.81
57000;BME280;42891;50.006;21.964;2022-09-09T18:26:34;98962.22;;;19.84;76.45
57000;BME280;42891;50.006;21.964;2022-09-09T18:30:38;98958.31;;;19.86;76.52
57000;BME280;42891;50.006;21.964;2022-09-09T18:34:39;98955.13;;;19.76;76.82
57000;BME280;42891;50.006;21.964;2022-09-09T18:38:40;98956.16;;;19.75;77.01
57000;BME280;42891;50.006;21.964;2022-09-09T18:42:40;98956.34;;;19.73;76.59
57000;BME280;42891;50.006;21.964;2022-09-09T18:46:41;98967.72;;;19.75;76.39
57000;BME280;42891;50.006;21.964;2022-09-09T18:50:42;98953.19;;;19.63;76.53
57000;BME280;42891;50.006;21.964;2022-09-09T18:54:42;98955.22;;;19.61;76.09
57000;BME280;42891;50.006;21.964;2022-09-09T18:58:45;98965.94;;;19.61;76.31
57000;BME280;42891;50.006;21.964;2022-09-09T19:02:48;98958.31;;;19.58;76.12
57000;BME280;42891;50.006;21.964;2022-09-09T19:06:51;98957.25;;;19.52;76.30
57000;BME280;42891;50.006;21.964;2022-09-09T19:10:59;98958.78;;;19.40;76.89
57000;BME280;42891;50.006;21.964;2022-09-09T19:15:00;98958.19;;;19.16;78.01
57000;BME280;42891;50.006;21.964;2022-09-09T19:19:06;98961.38;;;19.05;78.73
57000;BME280;42891;50.006;21.964;2022-09-09T19:23:07;98935.78;;;18.81;79.25
57000;BME280;42891;50.006;21.964;2022-09-09T19:27:08;98950.56;;;18.91;78.77
57000;BME280;42891;50.006;21.964;2022-09-09T19:31:09;98944.66;;;18.81;79.56
57000;BME280;42891;50.006;21.964;2022-09-09T19:35:09;98951.56;;;18.90;78.98
57000;BME280;42891;50.006;21.964;2022-09-09T19:39:10;98916.06;;;18.60;79.63
57000;BME280;42891;50.006;21.964;2022-09-09T19:43:10;98952.31;;;18.84;78.85
57000;BME280;42891;50.006;21.964;2022-09-09T19:47:11;98962.81;;;18.86;78.73
57000;BME280;42891;50.006;21.964;2022-09-09T19:51:18;98970.75;;;18.79;79.24
57000;BME280;42891;50.006;21.964;2022-09-09T19:55:19;98954.53;;;18.59;79.40
57000;BME280;42891;50.006;21.964;2022-09-09T19:59:19;98964.06;;;18.68;79.29
57000;BME280;42891;50.006;21.964;2022-09-09T20:03:20;98951.84;;;18.59;78.68
57000;BME280;42891;50.006;21.964;2022-09-09T20:07:20;98964.94;;;18.54;78.47
57000;BME280;42891;50.006;21.964;2022-09-09T20:11:21;98981.75;;;18.48;79.18
57000;BME280;42891;50.006;21.964;2022-09-09T20:15:22;98976.94;;;18.43;79.45
57000;BME280;42891;50.006;21.964;2022-09-09T20:19:22;98971.78;;;18.42;79.24
57000;BME280;42891;50.006;21.964;2022-09-09T20:23:22;98961.00;;;18.35;79.13
57000;BME280;42891;50.006;21.964;2022-09-09T20:27:23;98959.66;;;18.24;79.23
57000;BME280;42891;50.006;21.964;2022-09-09T20:31:26;98948.72;;;18.04;79.90
57000;BME280;42891;50.006;21.964;2022-09-09T20:35:27;98948.81;;;18.11;80.32
57000;BME280;42891;50.006;21.964;2022-09-09T20:39:27;98954.97;;;18.11;80.65
57000;BME280;42891;50.006;21.964;2022-09-09T20:43:28;98951.84;;;18.08;80.85
57000;BME280;42891;50.006;21.964;2022-09-09T20:47:28;98958.50;;;17.97;80.93
57000;BME280;42891;50.006;21.964;2022-09-09T20:51:29;98963.16;;;17.95;81.19
57000;BME280;42891;50.006;21.964;2022-09-09T20:55:32;98948.50;;;17.76;82.05
57000;BME280;42891;50.006;21.964;2022-09-09T20:59:33;98949.81;;;17.80;82.19
57000;BME280;42891;50.006;21.964;2022-09-09T21:03:36;98955.41;;;17.85;82.79
57000;BME280;42891;50.006;21.964;2022-09-09T21:07:36;98919.75;;;17.63;83.35
57000;BME280;42891;50.006;21.964;2022-09-09T21:11:37;98928.63;;;17.63;83.92
57000;BME280;42891;50.006;21.964;2022-09-09T21:15:37;98966.09;;;17.85;84.13
57000;BME280;42891;50.006;21.964;2022-09-09T21:19:38;98962.41;;;17.86;84.44
57000;BME280;42891;50.006;21.964;2022-09-09T21:23:38;98945.38;;;17.72;84.87
57000;BME280;42891;50.006;21.964;2022-09-09T21:27:38;98954.13;;;17.81;85.05
57000;BME280;42891;50.006;21.964;2022-09-09T21:31:38;98962.97;;;17.81;85.43
57000;BME280;42891;50.006;21.964;2022-09-09T21:35:40;98959.09;;;17.84;85.57
57000;BME280;42891;50.006;21.964;2022-09-09T21:39:40;98957.25;;;17.84;85.67
57000;BME280;42891;50.006;21.964;2022-09-09T21:43:42;98954.13;;;17.81;86.08
57000;BME280;42891;50.006;21.964;2022-09-09T21:47:44;98938.09;;;17.66;86.43
57000;BME280;42891;50.006;21.964;2022-09-09T21:51:48;98948.31;;;17.77;86.00
57000;BME280;42891;50.006;21.964;2022-09-09T21:55:48;98956.25;;;17.85;85.83
57000;BME280;42891;50.006;21.964;2022-09-09T21:59:48;98951.53;;;17.87;86.05
57000;BME280;42891;50.006;21.964;2022-09-09T22:03:49;98950.53;;;17.88;86.04
57000;BME280;42891;50.006;21.964;2022-09-09T22:07:49;98942.81;;;17.79;86.43
57000;BME280;42891;50.006;21.964;2022-09-09T22:11:52;98951.34;;;17.89;86.54
57000;BME280;42891;50.006;21.964;2022-09-09T22:15:52;98952.03;;;17.91;86.23
57000;BME280;42891;50.006;21.964;2022-09-09T22:19:57;98940.56;;;17.82;86.02
57000;BME280;42891;50.006;21.964;2022-09-09T22:24:02;98948.88;;;17.87;86.06
57000;BME280;42891;50.006;21.964;2022-09-09T22:28:05;98922.72;;;17.68;86.20
57000;BME280;42891;50.006;21.964;2022-09-09T22:32:07;98949.81;;;17.80;86.43
57000;BME280;42891;50.006;21.964;2022-09-09T22:36:08;98954.97;;;17.81;86.50
57000;BME280;42891;50.006;21.964;2022-09-09T22:40:08;98933.97;;;17.78;86.39
57000;BME280;42891;50.006;21.964;2022-09-09T22:44:09;98946.09;;;17.81;86.48
57000;BME280;42891;50.006;21.964;2022-09-09T22:48:10;98920.34;;;17.73;86.41
57000;BME280;42891;50.006;21.964;2022-09-09T22:52:10;98931.94;;;17.80;86.40
57000;BME280;42891;50.006;21.964;2022-09-09T22:56:16;98925.09;;;17.78;86.33
57000;BME280;42891;50.006;21.964;2022-09-09T23:00:17;98894.72;;;17.64;86.25
57000;BME280;42891;50.006;21.964;2022-09-09T23:04:17;98907.41;;;17.77;86.16
57000;BME280;42891;50.006;21.964;2022-09-09T23:08:23;98912.94;;;17.75;86.42